Time;durP1;ratioP1;P1;durP2;ratioP2;P2;SDS_P1;SDS_P2;PMS_P1;PMS_P2;Temp;Humidity;BMP_temperature;BMP_pressure;BME280_temperature;BME280_humidity;BME280_pressure;Samples;Min_cycle;Max_cycle;Signal;HPM_P1;HPM_P2
2022/01/22 00:03:13;;;;;;;14.85;6.43;;;;;;;6.20;100.00;103457.00;10503965;28;20181;-80
2022/01/22 00:08:14;;;;;;;13.48;5.90;;;;;;;6.23;100.00;103462.16;10503035;28;20075;-79
2022/01/22 00:18:18;;;;;;;16.55;6.05;;;;;;;6.26;100.00;103450.31;10503756;28;20125;-79
2022/01/22 00:23:20;;;;;;;27.65;6.57;;;;;;;6.30;100.00;103446.44;10503971;28;20405;-80
2022/01/22 00:28:22;;;;;;;18.55;7.38;;;;;;;6.32;100.00;103452.59;10528527;28;20036;-79
2022/01/22 00:33:22;;;;;;;11.73;5.75;;;;;;;6.33;100.00;103450.75;10502583;28;20029;-80
2022/01/22 00:38:22;;;;;;;20.77;6.38;;;;;;;6.33;100.00;103435.47;10484653;28;20541;-80
2022/01/22 00:43:23;;;;;;;10.23;4.75;;;;;;;6.36;100.00;103435.25;10502703;28;20045;-79
2022/01/22 00:48:23;;;;;;;6.80;4.95;;;;;;;6.38;100.00;103430.63;10503527;28;20040;-79
2022/01/22 00:53:24;;;;;;;19.40;5.85;;;;;;;6.42;100.00;103434.81;10501012;28;20121;-80
2022/01/22 00:58:25;;;;;;;7.00;4.47;;;;;;;6.42;100.00;103424.06;10501135;28;20509;-80
2022/01/22 01:03:27;;;;;;;8.13;3.40;;;;;;;6.46;100.00;103424.69;10501783;28;20059;-79
2022/01/22 01:08:29;;;;;;;12.02;4.78;;;;;;;6.49;100.00;103429.88;10499927;28;20037;-79
2022/01/22 01:13:34;;;;;;;14.30;3.75;;;;;;;6.50;100.00;103428.88;10499588;28;20039;-79
2022/01/22 01:34:31;;;;;;;12.57;4.50;;;;;;;6.59;100.00;103428.25;10499947;28;20040;-80
2022/01/22 01:39:34;;;;;;;14.02;4.72;;;;;;;6.62;100.00;103430.72;10499344;28;20472;-79
2022/01/22 01:44:34;;;;;;;6.25;4.30;;;;;;;6.63;100.00;103429.72;10501107;28;20494;-80
2022/01/22 01:49:35;;;;;;;16.50;4.90;;;;;;;6.67;100.00;103425.03;10499546;28;20081;-80
2022/01/22 01:54:58;;;;;;;15.95;5.43;;;;;;;6.68;100.00;103434.81;10501113;28;20039;-79
2022/01/22 01:59:59;;;;;;;11.25;5.25;;;;;;;6.69;100.00;103429.28;10499805;28;20036;-79
2022/01/22 02:04:59;;;;;;;10.93;4.55;;;;;;;6.73;100.00;103425.44;10500976;28;20044;-79
2022/01/22 02:10:00;;;;;;;13.45;6.05;;;;;;;6.73;100.00;103421.84;10498576;28;20045;-80
2022/01/22 02:25:38;;;;;;;14.98;5.00;;;;;;;6.79;100.00;103437.56;10498712;28;20036;-80
2022/01/22 02:30:43;;;;;;;19.23;4.35;;;;;;;6.77;100.00;103428.78;10502435;28;20025;-79
2022/01/22 02:35:50;;;;;;;13.60;4.28;;;;;;;6.78;100.00;103413.47;10502839;28;20121;-78
2022/01/22 02:40:51;;;;;;;7.00;3.55;;;;;;;6.80;100.00;103425.84;10508209;28;20035;-79
2022/01/22 02:45:52;;;;;;;10.65;3.92;;;;;;;6.82;100.00;103421.19;10510313;28;20037;-80
2022/01/22 02:50:52;;;;;;;7.53;2.65;;;;;;;6.85;100.00;103426.38;10498063;28;20115;-79
2022/01/22 02:55:54;;;;;;;5.13;3.35;;;;;;;6.89;100.00;103427.88;10499350;28;20059;-79
2022/01/22 03:00:54;;;;;;;11.55;2.90;;;;;;;6.88;100.00;103423.44;10505301;28;20128;-80
2022/01/22 03:05:54;;;;;;;4.75;3.42;;;;;;;6.89;100.00;103421.59;10506084;28;20150;-81
2022/01/22 03:10:55;;;;;;;4.55;3.50;;;;;;;6.92;100.00;103421.38;10506259;28;20471;-80
2022/01/22 03:16:04;;;;;;;6.25;3.35;;;;;;;6.91;100.00;103436.69;10505216;28;20068;-79
2022/01/22 03:31:24;;;;;;;7.97;3.10;;;;;;;6.79;100.00;103445.66;10504448;28;20044;-80
2022/01/22 03:36:28;;;;;;;11.50;3.55;;;;;;;6.86;100.00;103433.50;10503503;28;20119;-79
2022/01/22 03:41:29;;;;;;;9.10;4.22;;;;;;;6.94;100.00;103446.41;10504340;28;20059;-79
2022/01/22 03:46:30;;;;;;;13.07;3.78;;;;;;;6.96;100.00;103433.69;10504013;28;20051;-80
2022/01/22 03:51:31;;;;;;;7.00;3.28;;;;;;;6.98;100.00;103437.09;10503976;28;20028;-79
2022/01/22 03:56:31;;;;;;;17.02;4.88;;;;;;;7.01;100.00;103436.88;10505014;28;20043;-80
2022/01/22 04:12:11;;;;;;;5.65;3.22;;;;;;;7.02;100.00;103453.91;10503860;28;20044;-80
2022/01/22 04:27:34;;;;;;;2.83;2.53;;;;;;;7.02;100.00;103456.59;10502248;28;20045;-79
2022/01/22 04:32:34;;;;;;;18.35;3.88;;;;;;;7.02;100.00;103448.53;10503989;28;20426;-78
2022/01/22 04:37:35;;;;;;;16.00;3.25;;;;;;;7.01;100.00;103447.66;10501478;28;20060;-80
2022/01/22 04:42:39;;;;;;;6.13;2.45;;;;;;;7.01;100.00;103444.13;10503084;28;20063;-79
2022/01/22 04:54:57;;;;;;;17.35;2.97;;;;;;;7.05;100.00;103443.78;10501297;28;20119;-81
2022/01/22 04:58:03;;;;;;;4.78;2.58;;;;;;;7.06;100.00;103440.13;10508940;28;20070;-80
2022/01/22 05:03:04;;;;;;;11.48;2.53;;;;;;;7.08;100.00;103438.16;10500973;28;20465;-80
2022/01/22 05:08:04;;;;;;;10.93;3.75;;;;;;;7.09;100.00;103437.19;10499737;28;20041;-80
2022/01/22 05:13:05;;;;;;;11.25;3.15;;;;;;;7.10;100.00;103430.81;10501217;28;20482;-85
2022/01/22 05:18:07;;;;;;;6.20;3.08;;;;;;;7.10;100.00;103430.81;10500381;28;20086;-78
2022/01/22 05:23:14;;;;;;;6.40;2.10;;;;;;;7.09;100.00;103431.81;10483589;28;20047;-80
2022/01/22 05:36:53;;;;;;;9.57;3.15;;;;;;;7.08;100.00;103427.38;10500002;28;20044;-80
2022/01/22 05:38:38;;;;;;;5.25;2.67;;;;;;;7.06;100.00;103426.66;10498307;28;20044;-80
2022/01/22 05:43:38;;;;;;;8.68;3.10;;;;;;;7.04;100.00;103431.28;10499888;28;20052;-80
2022/01/22 05:48:38;;;;;;;23.98;5.30;;;;;;;7.01;100.00;103434.19;10499526;28;20094;-80
2022/01/22 06:03:58;;;;;;;9.07;5.95;;;;;;;7.02;100.00;103457.50;10498656;28;20032;-80
2022/01/22 06:09:01;;;;;;;16.08;4.15;;;;;;;7.03;100.00;103459.19;10498373;28;20448;-79
2022/01/22 06:14:03;;;;;;;12.30;5.28;;;;;;;7.01;100.00;103462.97;10496982;28;20549;-80
2022/01/22 06:19:03;;;;;;;8.30;5.15;;;;;;;7.02;100.00;103459.28;10498710;28;20041;-80
2022/01/22 06:24:04;;;;;;;12.07;6.88;;;;;;;7.02;100.00;103462.00;10498020;28;20059;-80
2022/01/22 06:29:04;;;;;;;18.33;6.40;;;;;;;7.04;100.00;103466.31;10500118;28;20086;-79
2022/01/22 06:34:05;;;;;;;7.90;6.03;;;;;;;7.06;100.00;103467.06;10496892;28;20059;-81
2022/01/22 06:39:13;;;;;;;14.07;5.50;;;;;;;7.06;100.00;103468.91;10498448;28;20036;-80
2022/01/22 06:44:19;;;;;;;16.88;5.40;;;;;;;7.08;100.00;103470.47;10500445;28;20048;-80
2022/01/22 06:49:19;;;;;;;13.55;5.65;;;;;;;7.08;100.00;103469.63;10497099;28;20066;-80
2022/01/22 06:54:21;;;;;;;12.73;5.93;;;;;;;7.11;100.00;103475.66;10480559;28;20032;-81
2022/01/22 06:59:21;;;;;;;16.55;5.18;;;;;;;7.13;100.00;103479.09;10496794;28;20060;-80
2022/01/22 07:04:22;;;;;;;13.52;5.03;;;;;;;7.12;100.00;103487.31;10498692;28;20486;-79
2022/01/22 07:09:22;;;;;;;14.05;4.45;;;;;;;7.16;100.00;103489.66;10499836;28;20046;-79
2022/01/22 07:14:23;;;;;;;14.65;4.47;;;;;;;7.19;100.00;103489.44;10516318;28;20381;-80
2022/01/22 07:19:23;;;;;;;8.77;3.92;;;;;;;7.18;100.00;103498.50;10499220;28;20086;-79
2022/01/22 07:24:26;;;;;;;5.72;4.22;;;;;;;7.18;100.00;103495.81;10499680;28;20037;-79
2022/01/22 07:29:26;;;;;;;9.50;3.65;;;;;;;7.20;100.00;103485.75;10498051;28;20040;-80
2022/01/22 07:34:27;;;;;;;4.72;3.88;;;;;;;7.19;100.00;103489.44;10499267;28;20363;-79
2022/01/22 07:39:27;;;;;;;3.65;3.35;;;;;;;7.23;100.00;103477.47;10481315;28;20468;-79
2022/01/22 07:44:28;;;;;;;6.80;4.25;;;;;;;7.27;100.00;103478.09;10501639;28;20048;-80
2022/01/22 07:49:29;;;;;;;16.60;4.80;;;;;;;7.28;100.00;103478.97;10503613;28;20048;-79
2022/01/22 07:54:31;;;;;;;13.23;3.88;;;;;;;7.34;100.00;103478.50;10506204;28;20446;-80
2022/01/22 07:59:32;;;;;;;13.73;5.80;;;;;;;7.35;100.00;103472.16;10504401;28;20020;-80
2022/01/22 08:04:33;;;;;;;12.95;4.72;;;;;;;7.35;100.00;103466.75;10503848;28;20111;-80
2022/01/22 08:09:33;;;;;;;13.07;5.53;;;;;;;7.37;100.00;103464.78;10503766;28;20124;-79
2022/01/22 08:14:34;;;;;;;18.33;6.15;;;;;;;7.37;100.00;103462.09;10504417;28;20059;-79
2022/01/22 08:19:34;;;;;;;10.27;4.95;;;;;;;7.40;100.00;103464.56;10501903;28;20040;-80
2022/01/22 08:24:35;;;;;;;6.95;4.93;;;;;;;7.42;100.00;103462.63;10502345;28;20033;-80
2022/01/22 08:29:35;;;;;;;9.20;4.85;;;;;;;7.44;100.00;103464.25;10502379;28;20043;-81
2022/01/22 08:39:55;;;;;;;5.65;4.97;;;;;;;7.49;100.00;103490.00;10500773;28;20416;-79
2022/01/22 08:44:56;;;;;;;8.98;5.32;;;;;;;7.51;100.00;103485.34;10500750;28;20061;-78
2022/01/22 08:49:56;;;;;;;13.55;4.97;;;;;;;7.49;100.00;103490.84;10502360;28;20032;-80
2022/01/22 08:54:56;;;;;;;7.30;4.72;;;;;;;7.52;100.00;103490.63;10499588;28;20112;-80
2022/01/22 08:59:57;;;;;;;9.40;5.95;;;;;;;7.51;100.00;103494.31;10501214;28;20059;-80
2022/01/22 09:04:57;;;;;;;14.57;6.75;;;;;;;7.55;100.00;103506.56;10483039;28;20115;-79
2022/01/22 09:09:58;;;;;;;25.35;8.07;;;;;;;7.54;100.00;103499.47;10500298;28;20066;-80
2022/01/22 09:14:58;;;;;;;8.48;5.18;;;;;;;7.54;100.00;103509.41;10501067;28;20533;-80
2022/01/22 09:20:01;;;;;;;10.35;7.63;;;;;;;7.52;100.00;103511.34;10501442;28;20036;-79
2022/01/22 09:25:01;;;;;;;11.55;6.20;;;;;;;7.55;100.00;103509.28;10499235;28;20032;-80
2022/01/22 09:30:01;;;;;;;8.35;6.93;;;;;;;7.60;100.00;103520.59;10514773;28;20033;-80
2022/01/22 09:35:02;;;;;;;12.70;5.57;;;;;;;7.63;100.00;103523.06;10500155;28;20435;-80
2022/01/22 09:40:03;;;;;;;6.63;5.82;;;;;;;7.64;100.00;103527.47;10499632;28;20036;-81
2022/01/22 09:45:04;;;;;;;15.98;6.65;;;;;;;7.65;100.00;103533.72;10498873;28;20049;-80
2022/01/22 09:50:04;;;;;;;15.07;6.47;;;;;;;7.68;100.00;103544.28;10498671;28;20094;-81
2022/01/22 09:55:06;;;;;;;15.15;5.93;;;;;;;7.72;100.00;103558.41;10500943;28;20033;-80
2022/01/22 10:00:10;;;;;;;15.65;7.45;;;;;;;7.81;100.00;103549.63;10498556;28;20501;-80
2022/01/22 10:05:33;;;;;;;16.27;5.68;;;;;;;7.86;100.00;103550.16;10498421;28;20060;-81
2022/01/22 10:10:39;;;;;;;11.23;6.13;;;;;;;7.92;100.00;103538.91;10498298;28;20033;-80
2022/01/22 10:15:40;;;;;;;12.18;6.35;;;;;;;8.07;100.00;103537.75;10498814;28;20029;-80
2022/01/22 10:20:41;;;;;;;14.80;6.75;;;;;;;8.19;100.00;103559.38;10496983;28;20037;-80
2022/01/22 10:25:45;;;;;;;7.75;6.13;;;;;;;8.28;100.00;103547.88;10497282;28;20035;-80
2022/01/22 10:30:46;;;;;;;11.00;5.07;;;;;;;8.34;100.00;103553.66;10497208;28;20052;-80
2022/01/22 10:35:47;;;;;;;11.18;5.93;;;;;;;8.38;100.00;103563.28;10496965;28;20515;-81
2022/01/22 10:40:48;;;;;;;9.73;6.30;;;;;;;8.37;100.00;103555.28;10497388;28;20048;-81
2022/01/22 10:46:20;;;;;;;6.78;6.03;;;;;;;8.38;100.00;103554.31;10498311;28;20059;-80
2022/01/22 10:51:20;;;;;;;15.73;6.15;;;;;;;8.30;100.00;103554.03;10498542;28;20041;-80
2022/01/22 10:56:22;;;;;;;9.30;6.80;;;;;;;8.25;100.00;103553.50;10497574;28;20036;-81
2022/01/22 11:01:32;;;;;;;14.63;6.40;;;;;;;8.24;100.00;103554.50;10498037;28;20436;-80
2022/01/22 11:06:32;;;;;;;16.85;7.72;;;;;;;8.26;100.00;103555.22;10495979;28;20037;-80
2022/01/22 11:11:37;;;;;;;11.77;8.02;;;;;;;8.23;100.00;103550.06;10497352;28;20037;-80
2022/01/22 11:16:39;;;;;;;19.00;9.23;;;;;;;8.10;100.00;103551.03;10497270;28;20029;-80
2022/01/22 11:21:44;;;;;;;14.93;9.35;;;;;;;8.06;100.00;103541.41;10504474;28;20067;-80
2022/01/22 11:26:50;;;;;;;18.13;9.80;;;;;;;8.01;100.00;103554.41;10505050;28;20039;-80
2022/01/22 11:31:50;;;;;;;19.80;10.02;;;;;;;7.87;100.00;103568.06;10506115;28;20029;-80
2022/01/22 11:37:08;;;;;;;16.13;10.18;;;;;;;7.84;100.00;103577.22;10503352;28;20055;-80
2022/01/22 11:42:09;;;;;;;13.35;10.52;;;;;;;7.83;100.00;103580.06;10491331;28;20056;-80
2022/01/22 11:47:14;;;;;;;19.25;11.43;;;;;;;7.82;100.00;103560.31;10506137;28;20056;-81
2022/01/22 11:52:15;;;;;;;20.08;11.77;;;;;;;7.77;100.00;103562.47;10503309;28;20020;-81
2022/01/22 11:57:16;;;;;;;17.38;11.02;;;;;;;7.74;100.00;103572.66;10506950;28;20407;-78
2022/01/22 12:02:17;;;;;;;14.45;9.70;;;;;;;7.66;100.00;103567.81;10502631;28;20036;-81
2022/01/22 12:07:18;;;;;;;15.88;11.07;;;;;;;7.59;100.00;103553.03;10502599;28;20060;-80
2022/01/22 12:17:50;;;;;;;14.57;11.15;;;;;;;7.63;100.00;103552.72;10502594;28;20463;-80
2022/01/22 12:22:50;;;;;;;19.20;11.13;;;;;;;7.58;100.00;103543.25;10502677;28;20037;-80
2022/01/22 12:27:54;;;;;;;11.25;10.13;;;;;;;7.58;100.00;103552.19;10486136;28;20036;-79
2022/01/22 12:32:54;;;;;;;13.20;11.55;;;;;;;7.62;100.00;103560.91;10501698;28;20087;-80
2022/01/22 12:38:13;;;;;;;16.65;11.75;;;;;;;7.48;100.00;103556.53;10501854;28;20082;-77
2022/01/22 12:43:20;;;;;;;24.08;11.68;;;;;;;7.42;100.00;103557.84;10501451;28;20049;-77
2022/01/22 12:48:20;;;;;;;20.27;11.07;;;;;;;7.44;100.00;103557.75;10486005;28;20046;-77
2022/01/22 12:53:22;;;;;;;12.93;10.45;;;;;;;7.42;100.00;103557.84;10502010;28;20451;-77
2022/01/22 12:58:24;;;;;;;21.05;12.75;;;;;;;7.39;100.00;103546.41;10484058;28;20123;-77
2022/01/22 13:03:35;;;;;;;21.60;12.93;;;;;;;7.33;100.00;103557.66;10502528;28;20344;-77
2022/01/22 13:08:36;;;;;;;18.92;11.63;;;;;;;7.33;100.00;103554.94;10499741;28;20175;-77
2022/01/22 13:13:40;;;;;;;21.70;13.13;;;;;;;7.34;100.00;103562.06;10502115;28;20059;-77
2022/01/22 13:19:00;;;;;;;20.55;14.05;;;;;;;7.35;100.00;103561.09;10498728;28;20032;-77
2022/01/22 13:24:01;;;;;;;24.13;13.02;;;;;;;7.32;100.00;103572.97;10500590;28;20083;-77
2022/01/22 13:29:26;;;;;;;21.58;14.18;;;;;;;7.34;100.00;103559.34;10500114;28;20064;-77
2022/01/22 13:34:43;;;;;;;20.38;14.93;;;;;;;7.27;100.00;103569.72;10499747;28;20471;-77
2022/01/22 13:40:08;;;;;;;22.83;13.82;;;;;;;7.19;100.00;103572.97;10499643;28;20028;-77
2022/01/22 13:45:24;;;;;;;22.92;14.10;;;;;;;7.14;100.00;103576.97;10498787;28;20068;-77
2022/01/22 13:50:25;;;;;;;20.08;14.07;;;;;;;7.14;100.00;103575.13;10499468;28;20052;-78
2022/01/22 13:55:26;;;;;;;19.10;15.60;;;;;;;7.07;100.00;103571.16;10481531;28;20082;-80
2022/01/22 14:00:26;;;;;;;22.67;15.80;;;;;;;6.96;100.00;103573.75;10504507;28;20048;-80
2022/01/22 14:05:27;;;;;;;18.70;14.65;;;;;;;6.89;100.00;103567.06;10500188;28;20036;-78
2022/01/22 14:10:27;;;;;;;23.33;15.32;;;;;;;6.89;100.00;103567.06;10497641;28;20037;-80
2022/01/22 14:15:29;;;;;;;23.98;13.45;;;;;;;6.88;100.00;103570.72;10497320;28;20035;-78
2022/01/22 14:20:30;;;;;;;29.42;15.93;;;;;;;6.88;100.00;103570.72;10498598;28;20024;-79
2022/01/22 14:25:32;;;;;;;24.65;14.25;;;;;;;6.88;100.00;103559.97;10443987;28;20052;-79
2022/01/22 14:30:43;;;;;;;20.55;14.75;;;;;;;6.90;100.00;103555.34;10497356;28;20495;-79
2022/01/22 14:35:45;;;;;;;24.02;17.08;;;;;;;6.87;100.00;103542.94;10501835;28;20032;-80
2022/01/22 14:46:05;;;;;;;21.92;16.83;;;;;;;6.75;100.00;103533.88;10498853;28;20053;-79
2022/01/22 14:51:05;;;;;;;31.10;17.10;;;;;;;6.73;100.00;103541.22;10500101;28;20033;-78
2022/01/22 14:56:06;;;;;;;25.58;17.92;;;;;;;6.77;100.00;103530.25;10506794;28;20064;-79
2022/01/22 15:01:09;;;;;;;24.50;16.92;;;;;;;6.74;100.00;103529.47;10505961;28;20472;-80
2022/01/22 15:06:09;;;;;;;29.02;17.52;;;;;;;6.74;100.00;103526.78;10507082;28;20480;-79
2022/01/22 15:11:09;;;;;;;22.13;17.48;;;;;;;6.75;100.00;103530.34;10507224;28;20044;-80
2022/01/22 15:16:11;;;;;;;26.42;18.95;;;;;;;6.75;100.00;103522.25;10504587;28;20115;-79
2022/01/22 15:21:12;;;;;;;28.15;16.23;;;;;;;6.78;100.00;103522.03;10506125;28;20517;-81
2022/01/22 15:26:13;;;;;;;25.73;16.90;;;;;;;6.73;100.00;103519.69;10506086;28;20085;-80
2022/01/22 15:36:29;;;;;;;34.03;17.15;;;;;;;6.73;100.00;103527.78;10506118;28;20036;-79
2022/01/22 15:41:30;;;;;;;24.42;17.65;;;;;;;6.78;100.00;103540.03;10504284;28;20036;-79
2022/01/22 15:46:30;;;;;;;26.15;17.58;;;;;;;6.78;100.00;103538.19;10503626;28;20118;-79
2022/01/22 15:51:30;;;;;;;22.40;17.25;;;;;;;6.73;100.00;103533.16;10503505;28;20033;-78
2022/01/22 15:56:31;;;;;;;23.60;17.63;;;;;;;6.70;100.00;103541.44;10505148;28;20111;-79
2022/01/22 16:01:32;;;;;;;32.30;15.35;;;;;;;6.66;100.00;103548.00;10504867;28;20476;-80
2022/01/22 16:06:45;;;;;;;21.63;16.27;;;;;;;6.65;100.00;103554.34;10484899;28;20451;-80
2022/01/22 16:11:46;;;;;;;21.33;17.63;;;;;;;6.63;100.00;103563.50;10490216;28;20372;-79
2022/01/22 16:16:47;;;;;;;21.60;15.40;;;;;;;6.60;100.00;103544.88;10506811;28;20046;-79
2022/01/22 16:21:47;;;;;;;30.75;19.02;;;;;;;6.59;100.00;103551.22;10503134;28;20135;-79
2022/01/22 16:26:48;;;;;;;22.33;17.60;;;;;;;6.60;100.00;103561.03;10504055;28;20040;-80
2022/01/22 16:31:48;;;;;;;23.33;16.67;;;;;;;6.63;100.00;103572.44;10503023;28;20033;-79
2022/01/22 16:36:48;;;;;;;29.95;21.20;;;;;;;6.62;100.00;103565.34;10502404;28;20052;-80
2022/01/22 16:41:53;;;;;;;32.78;19.58;;;;;;;6.60;100.00;103567.25;10501140;28;20040;-79
2022/01/22 16:57:22;;;;;;;28.17;17.95;;;;;;;6.51;100.00;103568.78;10500637;28;20442;-79
2022/01/22 17:02:25;;;;;;;31.88;18.25;;;;;;;6.46;100.00;103559.28;10502097;28;20055;-79
2022/01/22 17:07:35;;;;;;;30.75;19.23;;;;;;;6.49;100.00;103564.47;10501090;28;20050;-80
2022/01/22 17:17:54;;;;;;;41.00;17.00;;;;;;;6.49;100.00;103586.84;10500334;28;20032;-80
2022/01/22 17:22:55;;;;;;;24.17;17.45;;;;;;;6.46;100.00;103592.44;10500405;28;20040;-79
2022/01/22 17:27:55;;;;;;;29.25;17.00;;;;;;;6.49;100.00;103584.16;10500678;28;20032;-80
2022/01/22 17:32:55;;;;;;;32.13;18.92;;;;;;;6.50;100.00;103585.03;10500591;28;20047;-80
2022/01/22 17:37:56;;;;;;;18.67;14.40;;;;;;;6.52;100.00;103585.78;10501597;28;20037;-78
2022/01/22 17:42:56;;;;;;;25.10;18.02;;;;;;;6.52;100.00;103589.34;10500823;28;20053;-79
2022/01/22 17:47:57;;;;;;;22.02;17.10;;;;;;;6.53;100.00;103587.50;10498761;28;20056;-80
2022/01/22 17:52:57;;;;;;;24.67;16.75;;;;;;;6.53;100.00;103593.75;10498492;28;20395;-80
2022/01/22 17:57:57;;;;;;;20.33;15.90;;;;;;;6.60;100.00;103593.31;10499492;28;20109;-79
2022/01/22 18:02:58;;;;;;;25.75;15.95;;;;;;;6.61;100.00;103592.38;10500162;28;20133;-79
2022/01/22 18:07:59;;;;;;;22.55;14.80;;;;;;;6.63;100.00;103583.22;10499196;28;20033;-80
2022/01/22 18:12:59;;;;;;;36.95;14.50;;;;;;;6.63;100.00;103577.81;10497701;28;20032;-80
2022/01/22 18:18:00;;;;;;;28.15;13.88;;;;;;;6.66;100.00;103574.91;10498193;28;20032;-80
2022/01/22 18:23:00;;;;;;;17.30;12.98;;;;;;;6.64;100.00;103568.78;10499866;28;20128;-79
2022/01/22 18:28:01;;;;;;;18.70;10.13;;;;;;;6.65;100.00;103572.34;10503199;28;20039;-79
2022/01/22 18:33:01;;;;;;;25.63;12.52;;;;;;;6.68;100.00;103578.38;10503383;28;20049;-80
2022/01/22 18:38:02;;;;;;;15.50;11.00;;;;;;;6.71;100.00;103580.84;10498652;28;20040;-79
2022/01/22 18:43:02;;;;;;;12.68;9.38;;;;;;;6.75;100.00;103587.75;10497913;28;20048;-80
2022/01/22 18:48:04;;;;;;;18.65;8.43;;;;;;;6.77;100.00;103584.09;10498565;28;20071;-80
2022/01/22 18:53:04;;;;;;;21.98;8.50;;;;;;;6.80;100.00;103591.97;10496639;28;20060;-80
2022/01/22 18:58:05;;;;;;;8.82;6.85;;;;;;;6.82;100.00;103593.56;10498804;28;20059;-80
2022/01/22 19:03:05;;;;;;;9.38;7.82;;;;;;;6.84;100.00;103596.16;10498643;28;20028;-80
2022/01/22 19:08:06;;;;;;;7.57;5.82;;;;;;;6.82;100.00;103581.94;10497733;28;20082;-80
2022/01/22 19:13:06;;;;;;;7.97;5.65;;;;;;;6.84;100.00;103591.66;10496590;28;20041;-80
2022/01/22 19:18:06;;;;;;;11.65;5.25;;;;;;;6.82;100.00;103604.34;10498651;28;20456;-80
2022/01/22 19:28:16;;;;;;;15.90;5.55;;;;;;;6.87;100.00;103585.19;10497646;28;20464;-80
2022/01/22 19:33:17;;;;;;;7.50;4.47;;;;;;;6.88;100.00;103586.91;10497371;28;20093;-80
2022/01/22 19:38:20;;;;;;;5.82;4.82;;;;;;;6.87;100.00;103587.88;10499198;28;20116;-80
2022/01/22 19:43:21;;;;;;;11.77;7.07;;;;;;;6.85;100.00;103590.66;10504444;28;20083;-80
2022/01/22 19:48:21;;;;;;;10.95;7.32;;;;;;;6.83;100.00;103587.22;10503594;28;20149;-80
2022/01/22 19:53:21;;;;;;;14.45;8.30;;;;;;;6.79;100.00;103583.00;10505217;28;20056;-80
2022/01/22 19:58:23;;;;;;;9.40;7.72;;;;;;;6.77;100.00;103584.97;10503830;28;20448;-79
2022/01/22 20:03:25;;;;;;;17.65;7.88;;;;;;;6.79;100.00;103590.22;10504231;28;20468;-80
2022/01/22 20:08:26;;;;;;;12.05;8.13;;;;;;;6.78;100.00;103585.81;10504466;28;20047;-80
2022/01/22 20:13:26;;;;;;;22.63;10.18;;;;;;;6.75;100.00;103590.44;10503892;28;20468;-80
2022/01/22 20:18:30;;;;;;;16.20;10.40;;;;;;;6.76;100.00;103594.00;10502276;28;20115;-80
2022/01/22 20:23:31;;;;;;;16.85;11.15;;;;;;;6.75;100.00;103587.75;10503172;28;20180;-80
2022/01/22 20:28:31;;;;;;;25.67;13.40;;;;;;;6.71;100.00;103580.84;10503069;28;20036;-80
2022/01/22 20:33:31;;;;;;;21.40;14.35;;;;;;;6.71;100.00;103583.56;10502188;28;20415;-80
2022/01/22 20:38:32;;;;;;;19.88;13.57;;;;;;;6.70;100.00;103587.22;10503491;28;20063;-80
2022/01/22 20:43:36;;;;;;;14.90;12.43;;;;;;;6.74;100.00;103598.63;10502774;28;20056;-80
2022/01/22 20:48:36;;;;;;;15.23;11.35;;;;;;;6.71;100.00;103594.31;10503469;28;20033;-80
2022/01/22 20:53:36;;;;;;;13.90;10.95;;;;;;;6.69;100.00;103590.88;10500486;28;20040;-80
2022/01/22 20:58:37;;;;;;;26.50;9.85;;;;;;;6.70;100.00;103584.53;10500755;28;20051;-80
2022/01/22 21:03:37;;;;;;;12.80;9.40;;;;;;;6.71;100.00;103585.38;10501921;28;20060;-80
2022/01/22 21:08:38;;;;;;;26.67;9.70;;;;;;;6.70;100.00;103592.59;10500935;28;20051;-80
2022/01/22 21:13:38;;;;;;;19.55;10.00;;;;;;;6.68;100.00;103586.47;10500267;28;20037;-80
2022/01/22 21:18:39;;;;;;;17.90;10.32;;;;;;;6.70;100.00;103583.63;10500139;28;20363;-80
2022/01/22 21:23:39;;;;;;;16.08;7.40;;;;;;;6.70;100.00;103589.91;10500763;28;20055;-80
2022/01/22 21:28:40;;;;;;;11.63;8.40;;;;;;;6.70;100.00;103589.91;10499993;28;20037;-79
2022/01/22 21:33:51;;;;;;;11.95;7.70;;;;;;;6.72;100.00;103597.88;10499994;28;20040;-79
2022/01/22 21:44:01;;;;;;;15.05;6.93;;;;;;;6.74;100.00;103585.19;10500228;28;20055;-80
2022/01/22 21:49:03;;;;;;;12.45;7.82;;;;;;;6.74;100.00;103583.34;10501861;28;20045;-80
2022/01/22 21:54:03;;;;;;;7.57;6.05;;;;;;;6.75;100.00;103598.53;10481982;28;20024;-80
2022/01/22 21:59:03;;;;;;;10.95;5.85;;;;;;;6.78;100.00;103600.16;10499957;28;20028;-80
2022/01/22 22:04:04;;;;;;;6.72;4.75;;;;;;;6.79;100.00;103601.00;10498504;28;20047;-80
2022/01/22 22:09:05;;;;;;;6.40;4.20;;;;;;;6.82;100.00;103608.88;10499040;28;20036;-80
2022/01/22 22:14:08;;;;;;;9.27;5.20;;;;;;;6.81;100.00;103604.47;10499440;28;20044;-80
2022/01/22 22:19:08;;;;;;;8.77;4.90;;;;;;;6.80;100.00;103600.06;10498937;28;20086;-80
2022/01/22 22:24:09;;;;;;;5.72;4.28;;;;;;;6.81;100.00;103599.06;10498743;28;20093;-80
2022/01/22 22:29:09;;;;;;;6.53;4.10;;;;;;;6.81;100.00;103601.78;10498879;28;20105;-81
2022/01/22 22:34:09;;;;;;;6.70;3.95;;;;;;;6.83;100.00;103605.19;10498846;28;20032;-78
2022/01/22 22:39:10;;;;;;;8.98;4.72;;;;;;;6.86;100.00;103605.00;10499111;28;20037;-79
2022/01/22 22:44:10;;;;;;;4.75;4.28;;;;;;;6.83;100.00;103606.09;10497831;28;20048;-79
2022/01/22 22:49:10;;;;;;;6.03;5.15;;;;;;;6.81;100.00;103613.41;10498080;28;20032;-79
2022/01/22 22:54:11;;;;;;;9.55;5.70;;;;;;;6.79;100.00;103615.31;10498245;28;20384;-79
2022/01/22 22:59:11;;;;;;;17.13;6.72;;;;;;;6.79;100.00;103612.63;10505347;28;20066;-80
2022/01/22 23:04:15;;;;;;;18.90;7.00;;;;;;;6.77;100.00;103593.03;10500146;28;20028;-79
2022/01/22 23:09:16;;;;;;;10.82;6.85;;;;;;;6.80;100.00;103597.38;10496664;28;20111;-80
2022/01/22 23:14:16;;;;;;;13.38;5.95;;;;;;;6.81;100.00;103618.78;10501195;28;20036;-79
2022/01/22 23:29:55;;;;;;;12.85;7.53;;;;;;;6.84;100.00;103618.56;10505547;28;20040;-80
2022/01/22 23:35:08;;;;;;;18.20;8.43;;;;;;;6.84;100.00;103606.94;10505003;28;20496;-79
2022/01/22 23:56:20;;;;;;;16.33;7.27;;;;;;;6.82;100.00;103600.78;10495243;28;20047;-78
